sensor_id;sensor_type;location;lat;lon;timestamp;temperature;humidity
29345;DHT22;16339;48.748;2.222;2023-05-07T00:00:07;19.70;97.20
29345;DHT22;16339;48.748;2.222;2023-05-07T00:02:36;19.70;97.30
29345;DHT22;16339;48.748;2.222;2023-05-07T00:05:07;19.70;97.30
29345;DHT22;16339;48.748;2.222;2023-05-07T00:07:37;19.70;97.40
29345;DHT22;16339;48.748;2.222;2023-05-07T00:10:10;19.70;97.40
29345;DHT22;16339;48.748;2.222;2023-05-07T00:12:41;19.70;97.30
29345;DHT22;16339;48.748;2.222;2023-05-07T00:15:10;19.70;97.20
29345;DHT22;16339;48.748;2.222;2023-05-07T00:17:39;19.70;97.40
29345;DHT22;16339;48.748;2.222;2023-05-07T00:20:08;19.70;97.40
29345;DHT22;16339;48.748;2.222;2023-05-07T00:22:37;19.70;97.30
29345;DHT22;16339;48.748;2.222;2023-05-07T00:25:10;19.70;97.10
29345;DHT22;16339;48.748;2.222;2023-05-07T00:27:39;19.60;97.20
29345;DHT22;16339;48.748;2.222;2023-05-07T00:30:08;19.70;97.30
29345;DHT22;16339;48.748;2.222;2023-05-07T00:32:37;19.60;97.20
29345;DHT22;16339;48.748;2.222;2023-05-07T00:35:07;19.60;96.60
29345;DHT22;16339;48.748;2.222;2023-05-07T00:37:36;19.40;95.50
29345;DHT22;16339;48.748;2.222;2023-05-07T00:40:07;19.40;96.50
29345;DHT22;16339;48.748;2.222;2023-05-07T00:42:38;19.40;96.80
29345;DHT22;16339;48.748;2.222;2023-05-07T00:45:07;19.40;97.00
29345;DHT22;16339;48.748;2.222;2023-05-07T00:47:36;19.50;97.20
29345;DHT22;16339;48.748;2.222;2023-05-07T00:50:06;19.40;96.60
29345;DHT22;16339;48.748;2.222;2023-05-07T00:52:36;19.40;96.50
29345;DHT22;16339;48.748;2.222;2023-05-07T00:55:08;19.30;96.20
29345;DHT22;16339;48.748;2.222;2023-05-07T00:57:41;19.30;96.40
29345;DHT22;16339;48.748;2.222;2023-05-07T01:00:11;19.20;96.10
29345;DHT22;16339;48.748;2.222;2023-05-07T01:02:40;19.30;96.50
29345;DHT22;16339;48.748;2.222;2023-05-07T01:05:10;19.30;96.80
29345;DHT22;16339;48.748;2.222;2023-05-07T01:07:40;19.30;97.20
29345;DHT22;16339;48.748;2.222;2023-05-07T01:10:11;19.40;97.50
29345;DHT22;16339;48.748;2.222;2023-05-07T01:12:46;19.40;97.20
29345;DHT22;16339;48.748;2.222;2023-05-07T01:15:18;19.40;97.30
29345;DHT22;16339;48.748;2.222;2023-05-07T01:17:47;19.40;97.30
29345;DHT22;16339;48.748;2.222;2023-05-07T01:20:17;19.50;97.40
29345;DHT22;16339;48.748;2.222;2023-05-07T01:22:49;19.50;97.40
29345;DHT22;16339;48.748;2.222;2023-05-07T01:25:18;19.50;97.50
29345;DHT22;16339;48.748;2.222;2023-05-07T01:27:48;19.50;97.50
29345;DHT22;16339;48.748;2.222;2023-05-07T01:30:19;19.50;97.50
29345;DHT22;16339;48.748;2.222;2023-05-07T01:32:52;19.50;97.10
29345;DHT22;16339;48.748;2.222;2023-05-07T01:35:27;19.50;97.30
29345;DHT22;16339;48.748;2.222;2023-05-07T01:38:01;19.50;97.40
29345;DHT22;16339;48.748;2.222;2023-05-07T01:40:31;19.50;97.30
29345;DHT22;16339;48.748;2.222;2023-05-07T01:43:01;19.50;97.50
29345;DHT22;16339;48.748;2.222;2023-05-07T01:45:30;19.50;97.40
29345;DHT22;16339;48.748;2.222;2023-05-07T01:48:00;19.50;97.20
29345;DHT22;16339;48.748;2.222;2023-05-07T01:50:30;19.50;97.30
29345;DHT22;16339;48.748;2.222;2023-05-07T01:53:02;19.50;97.50
29345;DHT22;16339;48.748;2.222;2023-05-07T01:55:31;19.50;97.70
29345;DHT22;16339;48.748;2.222;2023-05-07T01:57:59;19.50;97.60
29345;DHT22;16339;48.748;2.222;2023-05-07T02:00:28;19.50;97.50
29345;DHT22;16339;48.748;2.222;2023-05-07T02:02:57;19.50;97.50
29345;DHT22;16339;48.748;2.222;2023-05-07T02:05:26;19.50;97.50
29345;DHT22;16339;48.748;2.222;2023-05-07T02:07:55;19.40;97.50
29345;DHT22;16339;48.748;2.222;2023-05-07T02:10:26;19.40;97.50
29345;DHT22;16339;48.748;2.222;2023-05-07T02:12:57;19.40;97.60
29345;DHT22;16339;48.748;2.222;2023-05-07T02:15:28;19.30;97.20
29345;DHT22;16339;48.748;2.222;2023-05-07T02:18:03;19.30;97.20
29345;DHT22;16339;48.748;2.222;2023-05-07T02:20:32;19.30;97.60
29345;DHT22;16339;48.748;2.222;2023-05-07T02:23:00;19.40;97.80
29345;DHT22;16339;48.748;2.222;2023-05-07T02:25:32;19.30;97.70
29345;DHT22;16339;48.748;2.222;2023-05-07T02:28:00;19.30;97.80
29345;DHT22;16339;48.748;2.222;2023-05-07T02:30:29;19.40;98.00
29345;DHT22;16339;48.748;2.222;2023-05-07T02:32:58;19.40;98.10
29345;DHT22;16339;48.748;2.222;2023-05-07T02:35:27;19.30;97.80
29345;DHT22;16339;48.748;2.222;2023-05-07T02:37:56;19.30;97.80
29345;DHT22;16339;48.748;2.222;2023-05-07T02:40:24;19.30;97.90
29345;DHT22;16339;48.748;2.222;2023-05-07T02:42:59;19.30;97.60
29345;DHT22;16339;48.748;2.222;2023-05-07T02:45:27;19.30;97.70
29345;DHT22;16339;48.748;2.222;2023-05-07T02:47:56;19.20;97.40
29345;DHT22;16339;48.748;2.222;2023-05-07T02:50:25;19.10;97.60
29345;DHT22;16339;48.748;2.222;2023-05-07T02:52:53;19.10;97.80
29345;DHT22;16339;48.748;2.222;2023-05-07T02:55:22;19.10;98.00
29345;DHT22;16339;48.748;2.222;2023-05-07T02:57:51;19.20;98.20
29345;DHT22;16339;48.748;2.222;2023-05-07T03:00:23;19.20;98.40
29345;DHT22;16339;48.748;2.222;2023-05-07T03:02:53;19.20;98.00
29345;DHT22;16339;48.748;2.222;2023-05-07T03:05:22;19.10;97.70
29345;DHT22;16339;48.748;2.222;2023-05-07T03:07:54;19.10;97.90
29345;DHT22;16339;48.748;2.222;2023-05-07T03:10:23;19.20;98.10
29345;DHT22;16339;48.748;2.222;2023-05-07T03:12:52;19.20;98.10
29345;DHT22;16339;48.748;2.222;2023-05-07T03:15:23;19.20;98.00
29345;DHT22;16339;48.748;2.222;2023-05-07T03:17:52;19.20;97.90
29345;DHT22;16339;48.748;2.222;2023-05-07T03:20:21;19.20;97.90
29345;DHT22;16339;48.748;2.222;2023-05-07T03:22:50;19.10;97.80
29345;DHT22;16339;48.748;2.222;2023-05-07T03:25:19;19.10;97.90
29345;DHT22;16339;48.748;2.222;2023-05-07T03:27:47;19.10;98.00
29345;DHT22;16339;48.748;2.222;2023-05-07T03:30:16;19.10;98.10
29345;DHT22;16339;48.748;2.222;2023-05-07T03:32:48;19.10;98.20
29345;DHT22;16339;48.748;2.222;2023-05-07T03:35:16;19.10;98.20
29345;DHT22;16339;48.748;2.222;2023-05-07T03:37:45;19.20;98.50
29345;DHT22;16339;48.748;2.222;2023-05-07T03:40:14;19.10;98.20
29345;DHT22;16339;48.748;2.222;2023-05-07T03:42:43;19.10;98.20
29345;DHT22;16339;48.748;2.222;2023-05-07T03:45:12;19.10;98.20
29345;DHT22;16339;48.748;2.222;2023-05-07T03:47:41;19.10;98.20
29345;DHT22;16339;48.748;2.222;2023-05-07T03:50:12;19.10;98.20
29345;DHT22;16339;48.748;2.222;2023-05-07T03:52:41;19.10;98.40
29345;DHT22;16339;48.748;2.222;2023-05-07T03:55:10;19.20;98.30
29345;DHT22;16339;48.748;2.222;2023-05-07T03:57:38;19.10;98.00
29345;DHT22;16339;48.748;2.222;2023-05-07T04:00:08;19.10;98.20
29345;DHT22;16339;48.748;2.222;2023-05-07T04:02:37;19.10;98.30
29345;DHT22;16339;48.748;2.222;2023-05-07T04:05:06;19.10;98.40
29345;DHT22;16339;48.748;2.222;2023-05-07T04:07:38;19.20;98.50
29345;DHT22;16339;48.748;2.222;2023-05-07T04:10:07;19.10;98.50
29345;DHT22;16339;48.748;2.222;2023-05-07T04:12:36;19.10;98.50
29345;DHT22;16339;48.748;2.222;2023-05-07T04:15:05;19.10;98.20
29345;DHT22;16339;48.748;2.222;2023-05-07T04:17:34;19.10;98.20
29345;DHT22;16339;48.748;2.222;2023-05-07T04:20:04;19.10;98.20
29345;DHT22;16339;48.748;2.222;2023-05-07T04:22:34;19.10;98.20
29345;DHT22;16339;48.748;2.222;2023-05-07T04:25:06;19.10;98.30
29345;DHT22;16339;48.748;2.222;2023-05-07T04:27:37;19.10;98.00
29345;DHT22;16339;48.748;2.222;2023-05-07T04:30:07;19.10;97.90
29345;DHT22;16339;48.748;2.222;2023-05-07T04:32:36;19.10;98.00
29345;DHT22;16339;48.748;2.222;2023-05-07T04:35:07;19.10;98.10
29345;DHT22;16339;48.748;2.222;2023-05-07T04:37:36;19.00;98.20
29345;DHT22;16339;48.748;2.222;2023-05-07T04:40:08;19.10;98.30
29345;DHT22;16339;48.748;2.222;2023-05-07T04:42:36;19.00;98.50
29345;DHT22;16339;48.748;2.222;2023-05-07T04:45:06;19.10;98.40
29345;DHT22;16339;48.748;2.222;2023-05-07T04:47:35;19.10;98.50
29345;DHT22;16339;48.748;2.222;2023-05-07T04:50:05;19.10;98.30
29345;DHT22;16339;48.748;2.222;2023-05-07T04:52:34;19.10;98.40
29345;DHT22;16339;48.748;2.222;2023-05-07T04:55:06;19.10;98.50
29345;DHT22;16339;48.748;2.222;2023-05-07T04:57:37;19.10;98.60
29345;DHT22;16339;48.748;2.222;2023-05-07T05:00:08;19.10;98.60
29345;DHT22;16339;48.748;2.222;2023-05-07T05:02:39;19.10;98.60
29345;DHT22;16339;48.748;2.222;2023-05-07T05:05:08;19.10;98.40
29345;DHT22;16339;48.748;2.222;2023-05-07T05:07:37;19.10;98.40
29345;DHT22;16339;48.748;2.222;2023-05-07T05:10:06;19.00;98.40
29345;DHT22;16339;48.748;2.222;2023-05-07T05:12:38;19.00;98.50
29345;DHT22;16339;48.748;2.222;2023-05-07T05:15:08;19.00;98.20
29345;DHT22;16339;48.748;2.222;2023-05-07T05:17:37;19.00;98.20
29345;DHT22;16339;48.748;2.222;2023-05-07T05:20:07;19.00;98.50
29345;DHT22;16339;48.748;2.222;2023-05-07T05:22:36;19.00;98.60
29345;DHT22;16339;48.748;2.222;2023-05-07T05:25:05;19.10;98.50
29345;DHT22;16339;48.748;2.222;2023-05-07T05:27:37;19.00;98.50
29345;DHT22;16339;48.748;2.222;2023-05-07T05:30:07;19.00;98.50
29345;DHT22;16339;48.748;2.222;2023-05-07T05:32:36;19.10;98.40
29345;DHT22;16339;48.748;2.222;2023-05-07T05:35:05;19.00;98.50
29345;DHT22;16339;48.748;2.222;2023-05-07T05:37:34;19.10;98.50
29345;DHT22;16339;48.748;2.222;2023-05-07T05:40:03;19.10;98.60
29345;DHT22;16339;48.748;2.222;2023-05-07T05:42:32;19.10;98.40
29345;DHT22;16339;48.748;2.222;2023-05-07T05:45:04;19.10;98.50
29345;DHT22;16339;48.748;2.222;2023-05-07T05:47:33;19.10;98.40
29345;DHT22;16339;48.748;2.222;2023-05-07T05:50:01;19.10;98.60
29345;DHT22;16339;48.748;2.222;2023-05-07T05:52:31;19.10;98.70
29345;DHT22;16339;48.748;2.222;2023-05-07T05:55:00;19.10;98.70
29345;DHT22;16339;48.748;2.222;2023-05-07T05:57:29;19.10;98.80
29345;DHT22;16339;48.748;2.222;2023-05-07T05:59:57;19.10;98.70
29345;DHT22;16339;48.748;2.222;2023-05-07T06:02:29;19.10;98.60
29345;DHT22;16339;48.748;2.222;2023-05-07T06:04:57;19.10;98.80
29345;DHT22;16339;48.748;2.222;2023-05-07T06:07:26;19.20;98.80
29345;DHT22;16339;48.748;2.222;2023-05-07T06:09:55;19.20;98.80
29345;DHT22;16339;48.748;2.222;2023-05-07T06:12:23;19.20;98.90
29345;DHT22;16339;48.748;2.222;2023-05-07T06:14:52;19.20;99.00
29345;DHT22;16339;48.748;2.222;2023-05-07T06:17:21;19.30;99.10
29345;DHT22;16339;48.748;2.222;2023-05-07T06:19:52;19.30;99.00
29345;DHT22;16339;48.748;2.222;2023-05-07T06:22:21;19.30;98.60
29345;DHT22;16339;48.748;2.222;2023-05-07T06:24:50;19.30;98.40
29345;DHT22;16339;48.748;2.222;2023-05-07T06:27:18;19.30;98.50
29345;DHT22;16339;48.748;2.222;2023-05-07T06:29:49;19.30;98.60
29345;DHT22;16339;48.748;2.222;2023-05-07T06:32:18;19.30;98.60
29345;DHT22;16339;48.748;2.222;2023-05-07T06:34:47;19.40;98.50
29345;DHT22;16339;48.748;2.222;2023-05-07T06:37:18;19.40;98.60
29345;DHT22;16339;48.748;2.222;2023-05-07T06:39:47;19.40;98.70
29345;DHT22;16339;48.748;2.222;2023-05-07T06:42:16;19.40;98.60
29345;DHT22;16339;48.748;2.222;2023-05-07T06:44:44;19.40;98.50
29345;DHT22;16339;48.748;2.222;2023-05-07T06:47:13;19.40;98.50
29345;DHT22;16339;48.748;2.222;2023-05-07T06:49:42;19.40;98.40
29345;DHT22;16339;48.748;2.222;2023-05-07T06:52:10;19.40;98.40
29345;DHT22;16339;48.748;2.222;2023-05-07T06:54:44;19.40;98.60
29345;DHT22;16339;48.748;2.222;2023-05-07T06:57:12;19.40;98.80
29345;DHT22;16339;48.748;2.222;2023-05-07T06:59:41;19.40;99.10
29345;DHT22;16339;48.748;2.222;2023-05-07T07:02:10;19.40;98.80
29345;DHT22;16339;48.748;2.222;2023-05-07T07:04:38;19.50;99.00
29345;DHT22;16339;48.748;2.222;2023-05-07T07:07:07;19.50;98.90
29345;DHT22;16339;48.748;2.222;2023-05-07T07:09:36;19.50;98.90
29345;DHT22;16339;48.748;2.222;2023-05-07T07:12:08;19.60;99.10
29345;DHT22;16339;48.748;2.222;2023-05-07T07:14:36;19.60;99.30
29345;DHT22;16339;48.748;2.222;2023-05-07T07:17:05;19.70;99.40
29345;DHT22;16339;48.748;2.222;2023-05-07T07:19:33;19.70;98.80
29345;DHT22;16339;48.748;2.222;2023-05-07T07:22:03;19.70;98.80
29345;DHT22;16339;48.748;2.222;2023-05-07T07:24:31;19.70;98.90
29345;DHT22;16339;48.748;2.222;2023-05-07T07:27:00;19.70;99.20
29345;DHT22;16339;48.748;2.222;2023-05-07T07:29:32;19.70;99.10
29345;DHT22;16339;48.748;2.222;2023-05-07T07:32:01;19.70;99.00
29345;DHT22;16339;48.748;2.222;2023-05-07T07:34:29;19.70;98.60
29345;DHT22;16339;48.748;2.222;2023-05-07T07:36:58;19.70;98.60
29345;DHT22;16339;48.748;2.222;2023-05-07T07:39:31;19.70;98.70
29345;DHT22;16339;48.748;2.222;2023-05-07T07:41:59;19.70;98.60
29345;DHT22;16339;48.748;2.222;2023-05-07T07:44:32;19.80;99.00
29345;DHT22;16339;48.748;2.222;2023-05-07T07:47:00;19.80;99.00
29345;DHT22;16339;48.748;2.222;2023-05-07T07:49:29;19.80;99.00
29345;DHT22;16339;48.748;2.222;2023-05-07T07:52:01;19.80;99.10
29345;DHT22;16339;48.748;2.222;2023-05-07T07:54:29;19.90;99.30
29345;DHT22;16339;48.748;2.222;2023-05-07T07:56:58;19.90;99.30
29345;DHT22;16339;48.748;2.222;2023-05-07T07:59:27;19.90;99.10
29345;DHT22;16339;48.748;2.222;2023-05-07T08:01:58;20.00;98.30
29345;DHT22;16339;48.748;2.222;2023-05-07T08:04:27;20.00;99.10
29345;DHT22;16339;48.748;2.222;2023-05-07T08:06:57;20.10;99.20
29345;DHT22;16339;48.748;2.222;2023-05-07T08:09:25;20.10;98.40
29345;DHT22;16339;48.748;2.222;2023-05-07T08:11:54;20.10;97.70
29345;DHT22;16339;48.748;2.222;2023-05-07T08:14:23;20.10;97.40
29345;DHT22;16339;48.748;2.222;2023-05-07T08:16:51;20.10;97.60
29345;DHT22;16339;48.748;2.222;2023-05-07T08:19:23;20.10;97.10
29345;DHT22;16339;48.748;2.222;2023-05-07T08:21:51;20.10;97.70
29345;DHT22;16339;48.748;2.222;2023-05-07T08:24:20;20.20;97.90
29345;DHT22;16339;48.748;2.222;2023-05-07T08:26:49;20.20;97.10
29345;DHT22;16339;48.748;2.222;2023-05-07T08:29:18;20.20;97.10
29345;DHT22;16339;48.748;2.222;2023-05-07T08:31:46;20.20;97.10
29345;DHT22;16339;48.748;2.222;2023-05-07T08:34:15;20.20;97.00
29345;DHT22;16339;48.748;2.222;2023-05-07T08:36:46;20.20;96.60
29345;DHT22;16339;48.748;2.222;2023-05-07T08:39:15;20.30;96.70
29345;DHT22;16339;48.748;2.222;2023-05-07T08:41:45;20.40;97.20
29345;DHT22;16339;48.748;2.222;2023-05-07T08:44:14;20.40;96.90
29345;DHT22;16339;48.748;2.222;2023-05-07T08:46:45;20.50;97.00
29345;DHT22;16339;48.748;2.222;2023-05-07T08:49:17;20.50;97.50
29345;DHT22;16339;48.748;2.222;2023-05-07T08:51:48;20.60;97.20
29345;DHT22;16339;48.748;2.222;2023-05-07T08:54:17;20.60;95.90
29345;DHT22;16339;48.748;2.222;2023-05-07T08:56:46;20.60;95.50
29345;DHT22;16339;48.748;2.222;2023-05-07T08:59:15;20.60;95.80
29345;DHT22;16339;48.748;2.222;2023-05-07T09:01:44;20.60;96.30
29345;DHT22;16339;48.748;2.222;2023-05-07T09:04:13;20.60;95.80
29345;DHT22;16339;48.748;2.222;2023-05-07T09:06:41;20.50;94.90
29345;DHT22;16339;48.748;2.222;2023-05-07T09:09:14;20.50;94.70
29345;DHT22;16339;48.748;2.222;2023-05-07T09:11:43;20.50;95.10
29345;DHT22;16339;48.748;2.222;2023-05-07T09:14:12;20.50;95.40
29345;DHT22;16339;48.748;2.222;2023-05-07T09:16:41;20.60;96.10
29345;DHT22;16339;48.748;2.222;2023-05-07T09:19:10;20.70;95.60
29345;DHT22;16339;48.748;2.222;2023-05-07T09:21:38;20.80;95.50
29345;DHT22;16339;48.748;2.222;2023-05-07T09:24:07;20.80;94.40
29345;DHT22;16339;48.748;2.222;2023-05-07T09:26:38;20.70;94.20
29345;DHT22;16339;48.748;2.222;2023-05-07T09:29:07;20.70;94.40
29345;DHT22;16339;48.748;2.222;2023-05-07T09:31:39;20.70;94.50
29345;DHT22;16339;48.748;2.222;2023-05-07T09:34:08;20.80;94.30
29345;DHT22;16339;48.748;2.222;2023-05-07T09:36:37;20.90;94.50
29345;DHT22;16339;48.748;2.222;2023-05-07T09:39:06;21.00;94.40
29345;DHT22;16339;48.748;2.222;2023-05-07T09:41:44;21.20;93.70
29345;DHT22;16339;48.748;2.222;2023-05-07T09:44:14;21.10;93.80
29345;DHT22;16339;48.748;2.222;2023-05-07T09:46:43;21.30;93.50
29345;DHT22;16339;48.748;2.222;2023-05-07T09:49:18;21.20;93.80
29345;DHT22;16339;48.748;2.222;2023-05-07T09:51:50;21.40;92.80
29345;DHT22;16339;48.748;2.222;2023-05-07T09:54:19;21.40;92.40
29345;DHT22;16339;48.748;2.222;2023-05-07T09:56:52;21.40;92.40
29345;DHT22;16339;48.748;2.222;2023-05-07T09:59:21;21.20;91.90
29345;DHT22;16339;48.748;2.222;2023-05-07T10:01:52;21.20;92.50
29345;DHT22;16339;48.748;2.222;2023-05-07T10:04:22;21.20;92.70
29345;DHT22;16339;48.748;2.222;2023-05-07T10:06:54;21.10;93.20
29345;DHT22;16339;48.748;2.222;2023-05-07T10:09:24;21.10;93.20
29345;DHT22;16339;48.748;2.222;2023-05-07T10:11:56;21.10;93.20
29345;DHT22;16339;48.748;2.222;2023-05-07T10:14:25;21.10;93.30
29345;DHT22;16339;48.748;2.222;2023-05-07T10:16:56;21.20;93.30
29345;DHT22;16339;48.748;2.222;2023-05-07T10:19:25;21.30;94.00
29345;DHT22;16339;48.748;2.222;2023-05-07T10:21:59;21.30;92.90
29345;DHT22;16339;48.748;2.222;2023-05-07T10:24:32;21.30;92.30
29345;DHT22;16339;48.748;2.222;2023-05-07T10:27:08;21.30;92.80
29345;DHT22;16339;48.748;2.222;2023-05-07T10:29:45;21.50;92.10
29345;DHT22;16339;48.748;2.222;2023-05-07T10:32:35;21.50;92.10
29345;DHT22;16339;48.748;2.222;2023-05-07T10:35:09;21.60;92.20
29345;DHT22;16339;48.748;2.222;2023-05-07T10:37:40;21.70;91.90
29345;DHT22;16339;48.748;2.222;2023-05-07T10:40:13;21.80;91.70
29345;DHT22;16339;48.748;2.222;2023-05-07T10:43:00;21.80;92.00
29345;DHT22;16339;48.748;2.222;2023-05-07T10:45:32;21.80;92.20
29345;DHT22;16339;48.748;2.222;2023-05-07T10:48:13;21.80;92.40
29345;DHT22;16339;48.748;2.222;2023-05-07T10:50:45;21.90;92.10
29345;DHT22;16339;48.748;2.222;2023-05-07T10:53:25;22.00;91.70
29345;DHT22;16339;48.748;2.222;2023-05-07T10:56:24;22.00;92.10
29345;DHT22;16339;48.748;2.222;2023-05-07T11:02:00;22.00;92.30
29345;DHT22;16339;48.748;2.222;2023-05-07T11:04:34;22.00;92.30
29345;DHT22;16339;48.748;2.222;2023-05-07T11:07:26;21.90;92.50
29345;DHT22;16339;48.748;2.222;2023-05-07T11:10:05;21.80;92.50
29345;DHT22;16339;48.748;2.222;2023-05-07T11:12:53;21.70;92.60
29345;DHT22;16339;48.748;2.222;2023-05-07T11:15:41;21.50;93.50
29345;DHT22;16339;48.748;2.222;2023-05-07T11:18:17;21.20;94.50
29345;DHT22;16339;48.748;2.222;2023-05-07T11:20:55;20.70;95.80
29345;DHT22;16339;48.748;2.222;2023-05-07T11:23:55;20.50;97.10
29345;DHT22;16339;48.748;2.222;2023-05-07T11:26:25;20.40;98.00
29345;DHT22;16339;48.748;2.222;2023-05-07T11:28:57;20.40;98.30
29345;DHT22;16339;48.748;2.222;2023-05-07T11:31:27;20.40;99.00
29345;DHT22;16339;48.748;2.222;2023-05-07T11:34:04;20.40;99.60
29345;DHT22;16339;48.748;2.222;2023-05-07T11:36:34;20.50;99.90
29345;DHT22;16339;48.748;2.222;2023-05-07T11:39:04;20.60;99.90
29345;DHT22;16339;48.748;2.222;2023-05-07T11:41:36;20.60;99.90
29345;DHT22;16339;48.748;2.222;2023-05-07T11:44:04;20.70;99.90
29345;DHT22;16339;48.748;2.222;2023-05-07T11:46:34;20.80;99.90
29345;DHT22;16339;48.748;2.222;2023-05-07T11:49:06;20.70;99.90
29345;DHT22;16339;48.748;2.222;2023-05-07T11:51:40;20.60;99.90
29345;DHT22;16339;48.748;2.222;2023-05-07T11:54:19;20.60;99.90
29345;DHT22;16339;48.748;2.222;2023-05-07T11:56:48;20.60;99.90
29345;DHT22;16339;48.748;2.222;2023-05-07T11:59:33;20.60;99.90
29345;DHT22;16339;48.748;2.222;2023-05-07T12:02:06;20.60;99.90
29345;DHT22;16339;48.748;2.222;2023-05-07T12:04:38;20.60;99.90
29345;DHT22;16339;48.748;2.222;2023-05-07T12:07:11;20.60;99.90
29345;DHT22;16339;48.748;2.222;2023-05-07T12:09:40;20.70;99.90
29345;DHT22;16339;48.748;2.222;2023-05-07T12:12:09;20.90;99.90
29345;DHT22;16339;48.748;2.222;2023-05-07T12:14:41;20.90;99.90
29345;DHT22;16339;48.748;2.222;2023-05-07T12:17:11;20.90;99.90
29345;DHT22;16339;48.748;2.222;2023-05-07T12:19:44;20.90;99.90
29345;DHT22;16339;48.748;2.222;2023-05-07T12:22:13;20.90;99.90
29345;DHT22;16339;48.748;2.222;2023-05-07T12:24:58;20.80;99.50
29345;DHT22;16339;48.748;2.222;2023-05-07T12:27:36;20.60;98.60
29345;DHT22;16339;48.748;2.222;2023-05-07T12:30:09;20.20;98.70
29345;DHT22;16339;48.748;2.222;2023-05-07T12:32:38;20.10;99.20
29345;DHT22;16339;48.748;2.222;2023-05-07T12:35:13;20.10;99.70
29345;DHT22;16339;48.748;2.222;2023-05-07T12:37:41;20.00;99.40
29345;DHT22;16339;48.748;2.222;2023-05-07T12:40:11;20.00;99.60
29345;DHT22;16339;48.748;2.222;2023-05-07T12:42:40;19.80;99.60
29345;DHT22;16339;48.748;2.222;2023-05-07T12:45:15;19.70;99.90
29345;DHT22;16339;48.748;2.222;2023-05-07T12:47:44;19.80;99.90
29345;DHT22;16339;48.748;2.222;2023-05-07T12:50:17;19.80;99.90
29345;DHT22;16339;48.748;2.222;2023-05-07T12:52:49;19.50;99.90
29345;DHT22;16339;48.748;2.222;2023-05-07T12:55:26;19.60;99.90
29345;DHT22;16339;48.748;2.222;2023-05-07T12:57:56;19.70;99.90
29345;DHT22;16339;48.748;2.222;2023-05-07T13:00:35;19.80;99.90
29345;DHT22;16339;48.748;2.222;2023-05-07T13:03:05;19.80;99.90
29345;DHT22;16339;48.748;2.222;2023-05-07T13:08:11;20.10;99.90
29345;DHT22;16339;48.748;2.222;2023-05-07T13:10:40;20.20;99.90
29345;DHT22;16339;48.748;2.222;2023-05-07T13:13:09;20.20;99.90
29345;DHT22;16339;48.748;2.222;2023-05-07T13:15:38;20.30;99.90
29345;DHT22;16339;48.748;2.222;2023-05-07T13:18:06;20.30;99.90
29345;DHT22;16339;48.748;2.222;2023-05-07T13:20:36;20.30;99.90
29345;DHT22;16339;48.748;2.222;2023-05-07T13:23:06;20.10;99.90
29345;DHT22;16339;48.748;2.222;2023-05-07T13:25:37;20.10;99.90
29345;DHT22;16339;48.748;2.222;2023-05-07T13:28:06;20.00;99.90
29345;DHT22;16339;48.748;2.222;2023-05-07T13:30:37;20.20;99.90
29345;DHT22;16339;48.748;2.222;2023-05-07T13:33:06;20.20;99.90
29345;DHT22;16339;48.748;2.222;2023-05-07T13:35:35;20.30;99.90
29345;DHT22;16339;48.748;2.222;2023-05-07T13:38:04;20.20;99.90
29345;DHT22;16339;48.748;2.222;2023-05-07T13:40:32;20.10;99.90
29345;DHT22;16339;48.748;2.222;2023-05-07T13:43:06;20.20;99.90
29345;DHT22;16339;48.748;2.222;2023-05-07T13:45:34;20.30;99.90
29345;DHT22;16339;48.748;2.222;2023-05-07T13:48:03;20.40;99.90
29345;DHT22;16339;48.748;2.222;2023-05-07T13:50:32;20.40;99.90
29345;DHT22;16339;48.748;2.222;2023-05-07T13:53:01;20.40;99.90
29345;DHT22;16339;48.748;2.222;2023-05-07T13:55:30;20.50;99.90
29345;DHT22;16339;48.748;2.222;2023-05-07T13:58:02;20.30;99.20
29345;DHT22;16339;48.748;2.222;2023-05-07T14:00:31;20.00;99.90
29345;DHT22;16339;48.748;2.222;2023-05-07T14:03:00;20.20;99.90
29345;DHT22;16339;48.748;2.222;2023-05-07T14:05:29;20.20;99.50
29345;DHT22;16339;48.748;2.222;2023-05-07T14:07:58;20.10;99.90
29345;DHT22;16339;48.748;2.222;2023-05-07T14:10:28;20.20;99.90
29345;DHT22;16339;48.748;2.222;2023-05-07T14:12:57;20.20;99.90
29345;DHT22;16339;48.748;2.222;2023-05-07T14:15:28;20.30;99.90
29345;DHT22;16339;48.748;2.222;2023-05-07T14:17:58;20.50;99.90
29345;DHT22;16339;48.748;2.222;2023-05-07T14:20:26;20.60;99.90
29345;DHT22;16339;48.748;2.222;2023-05-07T14:22:56;20.70;99.90
29345;DHT22;16339;48.748;2.222;2023-05-07T14:25:25;20.90;99.90
29345;DHT22;16339;48.748;2.222;2023-05-07T14:27:54;21.00;99.60
29345;DHT22;16339;48.748;2.222;2023-05-07T14:30:22;21.20;98.70
29345;DHT22;16339;48.748;2.222;2023-05-07T14:32:55;21.30;98.70
29345;DHT22;16339;48.748;2.222;2023-05-07T14:35:34;21.30;98.50
29345;DHT22;16339;48.748;2.222;2023-05-07T14:38:15;21.30;99.60
29345;DHT22;16339;48.748;2.222;2023-05-07T14:40:53;21.40;98.90
29345;DHT22;16339;48.748;2.222;2023-05-07T14:43:25;21.30;96.80
29345;DHT22;16339;48.748;2.222;2023-05-07T14:45:54;21.30;97.30
29345;DHT22;16339;48.748;2.222;2023-05-07T14:48:26;21.10;96.50
29345;DHT22;16339;48.748;2.222;2023-05-07T14:50:55;21.00;96.90
29345;DHT22;16339;48.748;2.222;2023-05-07T14:53:24;20.80;97.50
29345;DHT22;16339;48.748;2.222;2023-05-07T14:55:53;20.90;97.80
29345;DHT22;16339;48.748;2.222;2023-05-07T14:58:22;20.90;97.70
29345;DHT22;16339;48.748;2.222;2023-05-07T15:00:51;20.90;96.30
29345;DHT22;16339;48.748;2.222;2023-05-07T15:03:20;21.10;98.10
29345;DHT22;16339;48.748;2.222;2023-05-07T15:05:51;21.30;99.00
29345;DHT22;16339;48.748;2.222;2023-05-07T15:08:20;21.30;96.50
29345;DHT22;16339;48.748;2.222;2023-05-07T15:10:49;21.40;97.20
29345;DHT22;16339;48.748;2.222;2023-05-07T15:13:18;21.70;98.50
29345;DHT22;16339;48.748;2.222;2023-05-07T15:15:46;21.90;97.50
29345;DHT22;16339;48.748;2.222;2023-05-07T15:18:17;22.00;95.30
29345;DHT22;16339;48.748;2.222;2023-05-07T15:20:46;22.10;95.10
29345;DHT22;16339;48.748;2.222;2023-05-07T15:23:18;22.10;94.80
29345;DHT22;16339;48.748;2.222;2023-05-07T15:25:47;22.10;94.30
29345;DHT22;16339;48.748;2.222;2023-05-07T15:28:15;22.10;93.90
29345;DHT22;16339;48.748;2.222;2023-05-07T15:30:44;22.20;92.90
29345;DHT22;16339;48.748;2.222;2023-05-07T15:33:13;22.20;92.90
29345;DHT22;16339;48.748;2.222;2023-05-07T15:35:42;22.00;92.60
29345;DHT22;16339;48.748;2.222;2023-05-07T15:38:10;21.70;92.20
29345;DHT22;16339;48.748;2.222;2023-05-07T15:40:47;21.40;93.90
29345;DHT22;16339;48.748;2.222;2023-05-07T15:43:18;21.30;94.80
29345;DHT22;16339;48.748;2.222;2023-05-07T15:45:47;21.20;95.60
29345;DHT22;16339;48.748;2.222;2023-05-07T15:48:17;21.10;95.20
29345;DHT22;16339;48.748;2.222;2023-05-07T15:50:46;21.10;95.50
29345;DHT22;16339;48.748;2.222;2023-05-07T15:53:15;21.10;95.60
29345;DHT22;16339;48.748;2.222;2023-05-07T15:55:46;21.00;94.90